Handsom, Virginia
Current Conditions -  °F | °C
As of 5:55 PM on Wednesday 22 Oct 2014 (Local Time) from KFKN Reporting Station
Overcast Overcast  
Wind Chill: 55°   Ceiling: 2900
Heat Index: 55°   Visibility: 10mi
Dew Point: 48°   Wind: 12mph
Humidity: 77%   Direction: 320°NW
Pressure: 29.91"   Gusts: 22mph
Location:  36.6088°N, 77.0238°W
Report Text: KFKN 222155Z AUTO 32010G19KT 10SM OVC029 13/09 A2991 RMK AO1
Loading
Personal Weather Stations






























Interactive Weather Map
Tropical Storm Tracking
New forecast layout! Learn more

10-Day Weather Forecast

Advertisements
Track Severe Weather on mobile